Time;durP1;ratioP1;P1;durP2;ratioP2;P2;SDS_P1;SDS_P2;PMS_P1;PMS_P2;Temp;Humidity;BMP_temperature;BMP_pressure;BME280_temperature;BME280_humidity;BME280_pressure;Samples;Min_cycle;Max_cycle;Signal;HPM_P1;HPM_P2
2022/09/16 00:01:14;;;;;;;2.28;1.60;;;14.90;78.40;;;;;;4984920;28;20176;-76
2022/09/16 00:03:40;;;;;;;3.15;1.40;;;14.90;78.50;;;;;;4985800;28;20093;-78
2022/09/16 00:06:06;;;;;;;2.88;1.55;;;14.90;78.50;;;;;;4989478;28;20038;-78
2022/09/16 00:08:31;;;;;;;5.95;1.67;;;14.80;78.50;;;;;;4994177;28;20517;-76
2022/09/16 00:11:00;;;;;;;5.07;1.75;;;14.80;78.60;;;;;;4987756;28;20077;-77
2022/09/16 00:13:26;;;;;;;1.75;1.35;;;14.80;78.80;;;;;;4989995;28;20487;-78
2022/09/16 00:15:52;;;;;;;2.95;1.55;;;14.70;78.70;;;;;;4988915;28;20045;-77
2022/09/16 00:18:19;;;;;;;1.45;1.27;;;14.70;78.80;;;;;;4988863;28;20069;-78
2022/09/16 00:20:45;;;;;;;2.05;1.30;;;14.70;78.80;;;;;;4986440;28;20038;-77
2022/09/16 00:23:11;;;;;;;2.22;1.38;;;14.70;78.90;;;;;;4974934;28;20042;-75
2022/09/16 00:25:36;;;;;;;3.30;1.45;;;14.70;79.00;;;;;;4990710;28;20037;-77
2022/09/16 00:28:02;;;;;;;2.22;1.30;;;14.70;79.20;;;;;;4988644;28;20046;-76
2022/09/16 00:30:27;;;;;;;6.30;1.75;;;14.70;79.20;;;;;;4975074;28;20042;-75
2022/09/16 00:32:53;;;;;;;3.13;1.50;;;14.70;79.30;;;;;;4965645;28;20045;-76
2022/09/16 00:35:19;;;;;;;3.47;1.48;;;14.70;79.30;;;;;;4990185;28;20034;-75
2022/09/16 00:37:44;;;;;;;3.95;1.30;;;14.70;79.30;;;;;;4989503;28;20038;-76
2022/09/16 00:40:10;;;;;;;1.67;1.33;;;14.80;79.40;;;;;;4990118;28;20583;-76
2022/09/16 00:42:37;;;;;;;2.45;1.30;;;14.80;79.40;;;;;;4990090;28;20988;-76
2022/09/16 00:45:05;;;;;;;2.90;1.48;;;14.80;79.40;;;;;;4982165;28;20040;-75
2022/09/16 00:47:40;;;;;;;1.30;1.20;;;14.80;79.50;;;;;;4978303;28;20090;-75
2022/09/16 00:50:08;;;;;;;2.83;1.30;;;14.80;79.70;;;;;;4972356;28;20048;-77
2022/09/16 00:52:34;;;;;;;3.38;1.40;;;14.70;79.60;;;;;;4989044;28;20413;-76
2022/09/16 00:55:00;;;;;;;4.38;1.35;;;14.80;79.70;;;;;;4970979;28;20038;-76
2022/09/16 00:57:26;;;;;;;2.88;1.30;;;14.80;79.70;;;;;;5005808;28;20035;-78
2022/09/16 00:59:52;;;;;;;2.63;1.23;;;14.80;79.70;;;;;;4993580;28;20034;-79
2022/09/16 01:02:19;;;;;;;3.65;1.27;;;14.80;79.70;;;;;;4990975;28;20042;-78
2022/09/16 01:04:54;;;;;;;3.67;1.63;;;14.80;79.70;;;;;;4974247;28;20058;-78
2022/09/16 01:07:25;;;;;;;4.32;1.40;;;14.70;79.60;;;;;;4982403;28;20061;-78
2022/09/16 01:09:52;;;;;;;2.22;1.17;;;14.80;79.70;;;;;;4976092;28;20034;-78
2022/09/16 01:12:17;;;;;;;2.58;1.50;;;14.70;79.60;;;;;;5003193;28;20045;-78
2022/09/16 01:14:52;;;;;;;10.93;2.03;;;14.70;79.80;;;;;;4993850;28;20042;-78
2022/09/16 01:17:27;;;;;;;3.05;1.50;;;14.80;79.80;;;;;;4959965;28;20037;-78
2022/09/16 01:20:17;;;;;;;2.88;1.48;;;14.80;79.90;;;;;;4991700;28;20045;-76
2022/09/16 01:23:05;;;;;;;3.28;1.30;;;14.80;79.90;;;;;;4991256;28;20174;-76
2022/09/16 01:25:45;;;;;;;3.47;1.20;;;14.70;79.60;;;;;;4965611;28;20045;-78
2022/09/16 01:28:38;;;;;;;4.07;1.35;;;14.70;79.60;;;;;;4974642;28;20082;-77
2022/09/16 01:31:06;;;;;;;2.95;1.20;;;14.70;79.60;;;;;;4987464;28;20047;-78
2022/09/16 01:33:40;;;;;;;3.63;1.20;;;14.70;79.50;;;;;;4977219;28;20165;-76
2022/09/16 01:36:41;;;;;;;6.15;1.50;;;14.70;79.50;;;;;;4985825;28;20041;-78
2022/09/16 01:39:18;;;;;;;2.77;1.40;;;14.70;79.50;;;;;;4965850;28;20062;-78
2022/09/16 01:41:52;;;;;;;5.00;1.33;;;14.70;79.50;;;;;;4956390;28;20292;-78
2022/09/16 01:44:38;;;;;;;1.20;1.02;;;14.70;79.50;;;;;;4961287;28;20070;-78
2022/09/16 01:47:17;;;;;;;4.30;1.27;;;14.70;79.50;;;;;;4953308;28;20107;-78
2022/09/16 01:49:59;;;;;;;1.92;1.13;;;14.70;79.60;;;;;;4961704;28;20066;-78
2022/09/16 01:52:43;;;;;;;4.70;1.50;;;14.70;79.50;;;;;;4956110;28;20061;-77
2022/09/16 01:55:21;;;;;;;2.70;1.33;;;14.70;79.40;;;;;;4971317;28;20045;-76
2022/09/16 01:58:05;;;;;;;3.65;1.52;;;14.70;79.40;;;;;;4958971;28;20086;-78
2022/09/16 02:00:33;;;;;;;2.97;1.20;;;14.60;80.10;;;;;;4946857;28;20030;-77
2022/09/16 02:03:07;;;;;;;5.57;1.30;;;14.60;79.30;;;;;;4977657;28;20034;-77
2022/09/16 02:05:45;;;;;;;2.83;1.35;;;14.60;79.40;;;;;;4943381;28;20117;-77
2022/09/16 02:08:12;;;;;;;4.20;1.00;;;14.60;79.60;;;;;;4969139;28;20034;-78
2022/09/16 02:10:44;;;;;;;3.58;1.20;;;14.60;79.30;;;;;;4935199;28;20093;-78
2022/09/16 02:13:22;;;;;;;2.60;1.10;;;14.60;79.40;;;;;;4970502;28;20170;-78
2022/09/16 02:15:50;;;;;;;3.90;1.70;;;14.60;79.60;;;;;;4955768;28;20050;-77
2022/09/16 02:18:18;;;;;;;4.75;1.10;;;14.60;79.40;;;;;;4985065;28;20030;-77
2022/09/16 02:20:44;;;;;;;2.72;1.35;;;14.60;79.50;;;;;;4978156;28;20035;-77
2022/09/16 02:23:15;;;;;;;1.77;0.88;;;14.60;79.60;;;;;;4974676;28;20015;-78
2022/09/16 02:25:41;;;;;;;2.75;1.05;;;14.60;79.60;;;;;;4968347;28;20030;-78
2022/09/16 02:28:11;;;;;;;2.33;1.17;;;14.60;79.60;;;;;;4971316;28;20038;-79
2022/09/16 02:30:37;;;;;;;2.65;1.10;;;14.60;79.60;;;;;;4974490;28;20074;-77
2022/09/16 02:33:06;;;;;;;2.55;0.98;;;14.60;79.60;;;;;;4976133;28;20045;-76
2022/09/16 02:35:31;;;;;;;4.38;1.13;;;14.60;79.60;;;;;;4981805;28;20074;-78
2022/09/16 02:38:00;;;;;;;2.95;1.15;;;14.60;79.60;;;;;;4987252;28;20042;-77
2022/09/16 02:40:31;;;;;;;1.92;1.27;;;14.60;79.60;;;;;;4995288;28;20019;-79
2022/09/16 02:42:57;;;;;;;4.30;1.13;;;14.60;79.70;;;;;;4993628;28;20039;-78
2022/09/16 02:45:24;;;;;;;4.60;1.20;;;14.60;79.70;;;;;;5010518;28;20585;-77
2022/09/16 02:48:12;;;;;;;1.95;1.00;;;14.60;79.80;;;;;;4975887;28;20054;-78
2022/09/16 02:50:57;;;;;;;3.65;1.10;;;14.50;79.90;;;;;;4993771;28;20049;-78
2022/09/16 02:53:45;;;;;;;1.20;1.00;;;14.60;79.60;;;;;;4975222;28;20038;-78
2022/09/16 02:56:23;;;;;;;3.53;1.00;;;14.50;79.60;;;;;;4976779;28;20047;-78
2022/09/16 02:58:48;;;;;;;1.70;1.13;;;14.50;79.50;;;;;;4985235;28;20045;-79
2022/09/16 03:01:14;;;;;;;3.88;1.23;;;14.50;79.50;;;;;;4993031;28;20027;-78
2022/09/16 03:03:39;;;;;;;2.25;1.15;;;14.50;79.50;;;;;;4978228;28;20034;-78
2022/09/16 03:06:05;;;;;;;1.25;0.88;;;14.50;79.50;;;;;;5001644;28;20037;-78
2022/09/16 03:08:32;;;;;;;2.40;0.90;;;14.50;79.70;;;;;;4993741;28;20042;-77
2022/09/16 03:10:59;;;;;;;2.38;0.93;;;14.50;79.70;;;;;;4988463;28;20146;-77
2022/09/16 03:13:31;;;;;;;2.83;1.17;;;14.50;79.70;;;;;;4992478;28;20046;-77
2022/09/16 03:16:12;;;;;;;2.40;0.90;;;14.50;79.70;;;;;;4981510;28;20121;-78
2022/09/16 03:19:00;;;;;;;1.90;1.10;;;14.40;79.70;;;;;;4973787;28;20035;-78
2022/09/16 03:21:31;;;;;;;3.55;1.10;;;14.40;79.60;;;;;;4982510;28;20592;-78
2022/09/16 03:24:10;;;;;;;3.55;1.42;;;14.40;79.70;;;;;;4984126;28;20053;-79
2022/09/16 03:26:45;;;;;;;3.30;1.30;;;14.40;79.70;;;;;;4993973;28;20101;-78
2022/09/16 03:29:15;;;;;;;2.03;0.90;;;14.40;79.70;;;;;;4995526;28;20111;-79
2022/09/16 03:31:58;;;;;;;2.13;1.10;;;14.40;79.80;;;;;;4996787;28;20118;-79
2022/09/16 03:34:38;;;;;;;4.15;1.20;;;14.40;79.80;;;;;;4951466;28;20125;-78
2022/09/16 03:37:07;;;;;;;1.70;0.70;;;14.40;79.80;;;;;;4972314;28;20406;-78
2022/09/16 03:39:32;;;;;;;5.35;1.02;;;14.40;79.70;;;;;;4980256;28;20111;-77
2022/09/16 03:42:06;;;;;;;1.33;0.60;;;14.40;79.70;;;;;;4955310;28;20057;-77
2022/09/16 03:44:33;;;;;;;3.70;0.90;;;14.40;79.90;;;;;;4991658;28;20096;-77
2022/09/16 03:46:58;;;;;;;1.60;0.82;;;14.40;79.80;;;;;;4975157;28;20026;-78
2022/09/16 03:49:24;;;;;;;3.15;1.10;;;14.40;79.90;;;;;;4963485;28;20030;-77
2022/09/16 03:51:50;;;;;;;3.10;1.10;;;14.40;79.90;;;;;;4990933;28;20034;-78
2022/09/16 03:54:15;;;;;;;2.20;1.20;;;14.40;79.90;;;;;;4992925;28;20030;-77
2022/09/16 03:56:41;;;;;;;2.30;0.80;;;14.40;80.00;;;;;;4990810;28;20513;-76
2022/09/16 03:59:06;;;;;;;4.45;1.17;;;14.40;80.00;;;;;;4954962;28;20042;-78
2022/09/16 04:01:32;;;;;;;2.58;1.20;;;14.40;80.10;;;;;;4986197;28;20026;-77
2022/09/16 04:03:57;;;;;;;5.30;1.35;;;14.40;80.10;;;;;;4975514;28;20026;-77
2022/09/16 04:06:23;;;;;;;3.83;1.25;;;14.40;80.10;;;;;;5004783;28;20038;-76
2022/09/16 04:08:50;;;;;;;6.00;1.17;;;14.40;80.10;;;;;;4987776;28;20029;-79
2022/09/16 04:11:15;;;;;;;3.97;0.90;;;14.40;80.10;;;;;;4973729;28;20072;-78
2022/09/16 04:13:41;;;;;;;4.05;0.90;;;14.40;80.10;;;;;;4971579;28;20133;-77
2022/09/16 04:16:06;;;;;;;5.45;1.13;;;14.40;80.10;;;;;;4985112;28;20069;-76
2022/09/16 04:18:33;;;;;;;1.58;1.10;;;14.30;80.00;;;;;;4982131;28;20173;-77
2022/09/16 04:20:59;;;;;;;1.38;1.27;;;14.30;80.20;;;;;;4971297;28;20117;-75
2022/09/16 04:23:25;;;;;;;7.50;1.02;;;14.30;80.30;;;;;;4987574;28;20039;-78
2022/09/16 04:25:55;;;;;;;2.08;1.00;;;14.30;80.20;;;;;;4988124;28;20042;-78
2022/09/16 04:28:21;;;;;;;3.92;1.38;;;14.30;80.20;;;;;;4960991;28;20097;-77
2022/09/16 04:30:46;;;;;;;2.00;0.90;;;14.30;80.10;;;;;;4984986;28;20058;-79
2022/09/16 04:33:12;;;;;;;1.48;0.88;;;14.30;80.00;;;;;;4992791;28;20063;-79
2022/09/16 04:35:38;;;;;;;4.03;0.98;;;14.30;80.00;;;;;;4974483;28;20598;-77
2022/09/16 04:38:04;;;;;;;2.70;0.80;;;14.20;79.90;;;;;;4994135;28;20031;-77
2022/09/16 04:40:29;;;;;;;7.20;0.98;;;14.20;79.80;;;;;;5002875;28;20089;-78
2022/09/16 04:42:55;;;;;;;2.15;1.15;;;14.20;79.80;;;;;;5005861;28;20032;-78
2022/09/16 04:45:20;;;;;;;2.40;0.90;;;14.20;79.90;;;;;;5009360;28;20038;-76
2022/09/16 04:47:46;;;;;;;5.10;0.85;;;14.20;79.90;;;;;;5021813;28;20034;-78
2022/09/16 04:50:11;;;;;;;3.78;1.00;;;14.20;79.90;;;;;;5013456;28;20047;-78
2022/09/16 04:52:37;;;;;;;2.08;0.88;;;14.20;79.80;;;;;;4981798;28;20055;-77
2022/09/16 04:55:03;;;;;;;1.77;0.85;;;14.20;79.80;;;;;;4981709;28;20030;-77
2022/09/16 04:57:31;;;;;;;1.83;0.65;;;14.20;79.70;;;;;;4996249;28;20062;-78
2022/09/16 04:59:57;;;;;;;1.92;0.80;;;14.10;79.60;;;;;;4986708;28;20050;-77
2022/09/16 05:02:23;;;;;;;2.50;0.90;;;14.10;79.60;;;;;;4981185;28;20038;-77
2022/09/16 05:04:48;;;;;;;2.85;0.75;;;14.10;79.60;;;;;;4969007;28;20041;-79
2022/09/16 05:07:14;;;;;;;2.15;0.70;;;14.00;79.60;;;;;;4975672;28;20054;-77
2022/09/16 05:09:40;;;;;;;2.58;1.00;;;14.00;79.50;;;;;;5000567;28;20065;-78
2022/09/16 05:12:06;;;;;;;3.25;0.80;;;14.00;79.60;;;;;;4996924;28;20038;-77
2022/09/16 05:14:31;;;;;;;3.40;1.10;;;14.00;79.60;;;;;;4999442;28;20161;-77
2022/09/16 05:16:57;;;;;;;2.88;0.90;;;14.00;79.60;;;;;;4975287;28;20575;-76
2022/09/16 05:19:22;;;;;;;2.35;0.80;;;13.90;79.60;;;;;;4979160;28;20099;-78
2022/09/16 05:21:48;;;;;;;1.92;0.80;;;14.00;79.80;;;;;;5003631;28;20027;-77
2022/09/16 05:24:14;;;;;;;2.83;0.77;;;14.00;79.80;;;;;;4989280;28;20042;-74
2022/09/16 05:26:40;;;;;;;1.80;0.98;;;14.00;79.80;;;;;;4976967;28;20121;-75
2022/09/16 05:29:09;;;;;;;2.17;1.05;;;14.00;79.90;;;;;;4963476;28;20034;-75
2022/09/16 05:31:36;;;;;;;5.07;1.10;;;13.90;80.00;;;;;;4993047;28;20042;-77
2022/09/16 05:34:04;;;;;;;2.50;0.80;;;14.00;80.10;;;;;;4982498;28;20023;-78
2022/09/16 05:36:42;;;;;;;2.05;0.90;;;13.90;80.00;;;;;;4977959;28;20181;-78
2022/09/16 05:39:07;;;;;;;3.63;1.02;;;13.90;79.90;;;;;;4991432;28;20084;-76
2022/09/16 05:41:33;;;;;;;5.45;1.10;;;14.00;80.00;;;;;;4986976;28;20049;-76
2022/09/16 05:43:59;;;;;;;3.20;0.80;;;13.90;80.00;;;;;;4997639;28;20085;-77
2022/09/16 05:46:25;;;;;;;3.08;0.90;;;13.90;80.00;;;;;;4995027;28;20035;-77
2022/09/16 05:48:50;;;;;;;4.25;0.90;;;13.90;80.00;;;;;;4990608;28;20030;-78
2022/09/16 05:51:17;;;;;;;7.97;0.90;;;13.90;80.00;;;;;;4996568;28;20046;-80
2022/09/16 05:53:43;;;;;;;3.53;0.85;;;13.90;80.10;;;;;;4980885;28;20078;-78
2022/09/16 05:56:14;;;;;;;4.35;1.15;;;13.90;80.10;;;;;;4996275;28;20046;-78
2022/09/16 05:58:39;;;;;;;2.85;1.05;;;13.90;80.10;;;;;;4999249;28;20126;-78
2022/09/16 06:01:06;;;;;;;2.70;0.75;;;13.90;80.10;;;;;;5005305;28;20038;-78
2022/09/16 06:03:32;;;;;;;2.38;0.95;;;13.90;80.30;;;;;;5019850;28;20023;-78
2022/09/16 06:06:01;;;;;;;1.70;0.88;;;13.90;80.20;;;;;;4990292;28;20038;-78
2022/09/16 06:08:30;;;;;;;1.38;0.80;;;13.90;80.30;;;;;;4995704;28;20062;-78
2022/09/16 06:10:55;;;;;;;4.05;1.08;;;13.90;80.40;;;;;;4989834;28;20194;-78
2022/09/16 06:13:21;;;;;;;2.17;0.90;;;13.90;80.40;;;;;;5018153;28;20038;-79
2022/09/16 06:15:50;;;;;;;1.88;0.80;;;13.90;80.30;;;;;;4985022;28;20026;-78
2022/09/16 06:18:17;;;;;;;1.75;0.88;;;13.90;80.30;;;;;;5000739;28;20119;-78
2022/09/16 06:20:43;;;;;;;4.20;0.90;;;13.90;80.40;;;;;;4998208;28;20030;-79
2022/09/16 06:23:09;;;;;;;2.03;0.80;;;13.90;80.50;;;;;;5001753;28;20134;-78
2022/09/16 06:25:34;;;;;;;2.42;1.02;;;14.00;80.60;;;;;;4987614;28;20117;-78
2022/09/16 06:28:00;;;;;;;3.50;1.02;;;14.00;80.50;;;;;;5007061;28;20053;-79
2022/09/16 06:30:26;;;;;;;1.35;0.88;;;14.00;80.40;;;;;;5013550;28;20050;-78
2022/09/16 06:32:51;;;;;;;2.40;1.10;;;14.10;80.50;;;;;;5011697;28;20042;-78
2022/09/16 06:35:18;;;;;;;2.42;0.80;;;14.20;80.50;;;;;;5001624;28;20109;-78
2022/09/16 06:37:44;;;;;;;3.00;0.70;;;14.20;80.30;;;;;;5004315;28;20153;-78
2022/09/16 06:40:09;;;;;;;2.28;0.80;;;14.30;80.30;;;;;;4963085;28;20031;-76
2022/09/16 06:42:47;;;;;;;5.78;1.05;;;14.30;80.20;;;;;;5003294;28;20034;-78
2022/09/16 06:45:12;;;;;;;2.83;0.93;;;14.40;79.90;;;;;;5001633;28;20249;-78
2022/09/16 06:47:38;;;;;;;4.32;1.02;;;14.40;79.70;;;;;;5003455;28;20034;-77
2022/09/16 06:50:04;;;;;;;4.93;1.05;;;14.50;79.50;;;;;;5019289;28;20042;-76
2022/09/16 06:52:29;;;;;;;3.78;0.63;;;14.60;79.20;;;;;;4996530;28;20046;-77
2022/09/16 06:54:55;;;;;;;1.67;0.70;;;14.60;79.00;;;;;;4987388;28;20050;-76
2022/09/16 06:57:21;;;;;;;2.35;0.82;;;14.70;78.80;;;;;;5003082;28;20042;-76
2022/09/16 06:59:51;;;;;;;3.55;0.82;;;14.80;78.50;;;;;;4986696;28;20026;-77
2022/09/16 07:02:17;;;;;;;2.13;0.70;;;14.80;78.40;;;;;;5000120;28;20107;-77
2022/09/16 07:04:43;;;;;;;2.38;0.68;;;14.90;78.30;;;;;;5000225;28;20038;-77
2022/09/16 07:07:08;;;;;;;1.33;0.60;;;15.00;78.20;;;;;;5001144;28;20042;-76
2022/09/16 07:09:34;;;;;;;2.45;0.70;;;15.10;78.00;;;;;;4999513;28;20104;-76
2022/09/16 07:11:59;;;;;;;7.32;0.73;;;15.20;77.60;;;;;;4981791;28;20038;-76
2022/09/16 07:14:26;;;;;;;4.10;1.10;;;15.30;77.30;;;;;;5007298;28;20041;-75
2022/09/16 07:16:51;;;;;;;1.95;1.13;;;15.40;77.00;;;;;;4991028;28;20038;-77
2022/09/16 07:19:17;;;;;;;2.05;0.90;;;15.50;76.80;;;;;;5004937;28;20030;-78
2022/09/16 07:21:42;;;;;;;4.75;0.90;;;15.60;76.60;;;;;;5005815;28;20041;-76
2022/09/16 07:24:10;;;;;;;4.50;1.00;;;15.70;76.40;;;;;;4998213;28;20294;-77
2022/09/16 07:26:36;;;;;;;1.98;1.33;;;15.80;76.00;;;;;;5004247;28;20038;-78
2022/09/16 07:29:04;;;;;;;5.95;1.10;;;15.90;75.80;;;;;;4986684;28;20034;-77
2022/09/16 07:31:34;;;;;;;1.50;0.80;;;16.00;75.60;;;;;;5002174;28;20030;-77
2022/09/16 07:34:00;;;;;;;5.45;1.23;;;16.10;75.30;;;;;;4980159;28;20490;-78
2022/09/16 07:36:28;;;;;;;1.67;0.95;;;16.20;75.10;;;;;;4998238;28;20042;-78
2022/09/16 07:38:56;;;;;;;5.25;1.00;;;16.30;74.80;;;;;;4996290;28;20288;-76
2022/09/16 07:41:22;;;;;;;2.97;0.95;;;16.50;74.70;;;;;;4998741;28;20037;-77
2022/09/16 07:43:48;;;;;;;3.97;1.17;;;16.60;74.10;;;;;;4996314;28;20061;-77
2022/09/16 07:46:15;;;;;;;2.42;0.80;;;16.70;73.90;;;;;;4997107;28;20030;-77
2022/09/16 07:48:41;;;;;;;3.67;0.95;;;16.80;73.70;;;;;;5002236;28;20031;-77
2022/09/16 07:51:14;;;;;;;4.80;0.85;;;17.00;73.20;;;;;;4997711;28;20105;-77
2022/09/16 07:53:40;;;;;;;1.65;0.63;;;17.10;72.70;;;;;;4985677;28;20038;-77
2022/09/16 07:56:16;;;;;;;5.30;0.73;;;17.30;72.40;;;;;;5011097;28;20034;-78
2022/09/16 07:58:44;;;;;;;2.70;0.80;;;17.40;71.50;;;;;;4990851;28;20039;-77
2022/09/16 08:01:09;;;;;;;1.50;0.63;;;17.50;71.60;;;;;;5003350;28;20041;-77
2022/09/16 08:03:36;;;;;;;1.70;0.70;;;17.60;71.60;;;;;;5002042;28;20229;-77
2022/09/16 08:06:13;;;;;;;1.73;0.90;;;17.80;71.60;;;;;;4990303;28;20038;-77
2022/09/16 08:08:38;;;;;;;2.92;0.82;;;18.00;71.10;;;;;;5008201;28;20045;-78
2022/09/16 08:11:04;;;;;;;1.50;0.63;;;18.20;70.80;;;;;;4992619;28;20399;-77
2022/09/16 08:13:30;;;;;;;1.45;0.80;;;18.30;70.20;;;;;;4995516;28;20080;-76
2022/09/16 08:16:26;;;;;;;5.57;1.33;;;18.40;69.90;;;;;;4981181;28;20034;-77
2022/09/16 08:18:53;;;;;;;1.27;0.70;;;18.50;69.20;;;;;;4991801;28;20034;-79
2022/09/16 08:21:21;;;;;;;2.10;1.00;;;18.70;69.30;;;;;;4998367;28;20051;-77
2022/09/16 08:23:48;;;;;;;4.50;1.10;;;18.90;69.80;;;;;;4997972;28;20038;-78
2022/09/16 08:26:14;;;;;;;1.85;1.00;;;19.00;68.60;;;;;;4992803;28;20046;-78
2022/09/16 08:28:40;;;;;;;4.10;1.10;;;19.10;68.10;;;;;;5002502;28;20553;-78
2022/09/16 08:31:06;;;;;;;2.83;1.20;;;19.30;67.70;;;;;;4981887;28;20104;-77
2022/09/16 08:33:32;;;;;;;2.35;1.13;;;19.40;67.10;;;;;;4982249;28;20046;-77
2022/09/16 08:36:01;;;;;;;2.55;1.00;;;19.50;66.60;;;;;;5011687;28;20396;-78
2022/09/16 08:38:27;;;;;;;3.25;0.70;;;19.60;66.50;;;;;;5008560;28;20033;-77
2022/09/16 08:40:58;;;;;;;3.53;1.15;;;19.70;66.20;;;;;;4991947;28;20042;-78
2022/09/16 08:43:35;;;;;;;1.95;1.08;;;19.80;65.60;;;;;;4982874;28;20747;-76
2022/09/16 08:46:12;;;;;;;4.68;0.80;;;19.70;65.10;;;;;;5001017;28;20112;-77
2022/09/16 08:49:03;;;;;;;2.00;1.05;;;19.70;65.30;;;;;;5007829;28;20190;-77
2022/09/16 08:51:28;;;;;;;2.83;1.05;;;19.70;64.30;;;;;;5000426;28;20046;-76
2022/09/16 08:53:58;;;;;;;1.77;0.85;;;19.50;64.90;;;;;;4997216;28;20513;-77
2022/09/16 08:56:24;;;;;;;1.90;1.50;;;19.40;64.80;;;;;;5011402;28;20061;-78
2022/09/16 08:58:54;;;;;;;1.45;0.75;;;19.30;64.90;;;;;;4981192;28;20046;-77
2022/09/16 09:01:34;;;;;;;3.20;1.13;;;19.30;65.10;;;;;;4977781;28;20063;-78
2022/09/16 09:04:00;;;;;;;2.10;0.88;;;19.30;64.70;;;;;;4996627;28;20037;-77
2022/09/16 09:06:55;;;;;;;4.38;0.93;;;19.30;64.90;;;;;;4997746;28;20129;-77
2022/09/16 09:09:44;;;;;;;3.97;0.90;;;19.30;64.50;;;;;;4995174;28;20038;-77
2022/09/16 09:12:44;;;;;;;3.67;0.90;;;19.30;64.30;;;;;;4998355;28;20030;-77
2022/09/16 09:15:30;;;;;;;1.92;0.82;;;19.30;64.10;;;;;;4991901;28;20038;-78
2022/09/16 09:17:55;;;;;;;1.30;0.80;;;19.30;64.20;;;;;;4987916;28;20070;-77
2022/09/16 09:20:25;;;;;;;4.43;1.83;;;19.40;64.60;;;;;;4995209;28;20038;-77
2022/09/16 09:22:56;;;;;;;1.40;0.90;;;19.50;64.50;;;;;;4993733;28;20041;-77
2022/09/16 09:25:39;;;;;;;3.42;1.10;;;19.50;64.10;;;;;;5000387;28;20069;-77
2022/09/16 09:28:16;;;;;;;3.03;1.00;;;19.60;63.00;;;;;;4997145;28;20045;-77
2022/09/16 09:30:52;;;;;;;2.25;0.90;;;19.60;63.30;;;;;;4991913;28;20046;-77
2022/09/16 09:33:33;;;;;;;4.45;1.13;;;19.60;63.50;;;;;;4994922;28;20038;-78
2022/09/16 09:36:21;;;;;;;4.75;1.05;;;19.60;63.20;;;;;;4977874;28;20030;-78
2022/09/16 09:39:12;;;;;;;6.03;1.10;;;19.50;62.80;;;;;;5011968;28;20045;-78
2022/09/16 09:41:44;;;;;;;3.85;1.15;;;19.50;63.10;;;;;;4982269;28;20129;-77
2022/09/16 09:44:40;;;;;;;3.53;1.00;;;19.50;62.90;;;;;;4996720;28;20072;-78
2022/09/16 09:47:21;;;;;;;3.53;1.27;;;19.50;61.60;;;;;;4994516;28;20053;-77
2022/09/16 09:49:53;;;;;;;3.77;0.90;;;19.50;61.60;;;;;;5008884;28;20042;-77
2022/09/16 09:52:25;;;;;;;1.70;0.90;;;19.50;62.30;;;;;;4977820;28;20106;-77
2022/09/16 09:54:51;;;;;;;3.47;0.90;;;19.50;61.90;;;;;;4994713;28;20040;-77
2022/09/16 09:57:36;;;;;;;2.67;0.98;;;19.50;62.00;;;;;;4995107;28;20070;-78
2022/09/16 10:00:09;;;;;;;4.68;1.25;;;19.50;62.00;;;;;;4993106;28;20053;-77
2022/09/16 10:02:37;;;;;;;5.25;1.00;;;19.50;61.70;;;;;;4966255;28;20039;-78
2022/09/16 10:05:03;;;;;;;4.30;1.00;;;19.60;61.70;;;;;;4976403;28;20035;-77
2022/09/16 10:07:29;;;;;;;3.85;1.08;;;19.60;61.30;;;;;;4986605;28;20077;-79
2022/09/16 10:10:00;;;;;;;4.78;0.90;;;19.60;61.20;;;;;;4972816;28;20035;-79
2022/09/16 10:12:26;;;;;;;;;;;19.60;60.90;;;;;;4976545;28;20517;-78
2022/09/16 10:14:52;;;;;;;2.50;1.10;;;19.60;61.20;;;;;;4991945;28;19914;-78
2022/09/16 10:17:20;;;;;;;1.55;0.82;;;19.70;61.30;;;;;;4978708;28;20035;-78
2022/09/16 10:19:54;;;;;;;2.03;0.75;;;19.80;61.10;;;;;;4980351;28;20049;-78
2022/09/16 10:22:29;;;;;;;1.95;1.20;;;19.80;60.40;;;;;;4997975;28;20043;-78
2022/09/16 10:25:06;;;;;;;1.48;1.00;;;19.80;59.90;;;;;;4999714;28;20062;-79
2022/09/16 10:27:34;;;;;;;2.28;0.77;;;19.90;59.80;;;;;;5012783;28;20054;-77
2022/09/16 10:30:14;;;;;;;1.60;0.63;;;20.00;60.30;;;;;;5009332;28;20042;-78
2022/09/16 10:32:45;;;;;;;1.92;0.95;;;20.00;60.70;;;;;;4983416;28;20634;-78
2022/09/16 10:35:30;;;;;;;2.92;0.90;;;20.10;59.80;;;;;;4993009;28;20043;-77
2022/09/16 10:38:03;;;;;;;1.40;0.70;;;20.10;59.70;;;;;;4980460;28;20042;-77
2022/09/16 10:40:28;;;;;;;2.03;0.80;;;20.20;59.80;;;;;;4989952;28;20030;-79
2022/09/16 10:42:58;;;;;;;2.17;0.80;;;20.40;59.80;;;;;;4994206;28;20035;-80
2022/09/16 10:45:33;;;;;;;1.63;0.68;;;20.50;59.50;;;;;;4977243;28;20053;-78
2022/09/16 10:48:00;;;;;;;2.38;0.70;;;20.70;58.80;;;;;;4978372;28;20457;-78
2022/09/16 10:50:25;;;;;;;3.80;1.05;;;20.90;58.40;;;;;;5008350;28;20076;-78
2022/09/16 10:52:51;;;;;;;1.33;0.85;;;21.00;57.90;;;;;;4992378;28;20062;-77
2022/09/16 10:55:24;;;;;;;4.13;0.95;;;21.20;57.50;;;;;;4991897;28;20035;-79
2022/09/16 10:57:50;;;;;;;7.72;0.98;;;21.40;56.60;;;;;;4993216;28;20035;-78
2022/09/16 11:00:20;;;;;;;4.70;0.95;;;21.50;56.60;;;;;;4997131;28;20042;-78
2022/09/16 11:03:11;;;;;;;1.80;0.70;;;21.60;56.20;;;;;;4997316;28;20062;-78
2022/09/16 11:06:01;;;;;;;4.22;1.10;;;21.60;54.80;;;;;;4993796;28;20764;-77
2022/09/16 11:08:45;;;;;;;3.05;0.95;;;21.40;55.10;;;;;;4994850;28;20042;-75
2022/09/16 11:11:19;;;;;;;2.55;1.00;;;21.40;54.90;;;;;;4996854;28;20233;-77
2022/09/16 11:14:03;;;;;;;3.22;0.60;;;21.40;55.80;;;;;;4993106;28;20042;-77
2022/09/16 11:16:51;;;;;;;2.20;0.80;;;21.30;55.50;;;;;;4995067;28;20053;-78
2022/09/16 11:19:36;;;;;;;1.75;0.90;;;21.30;56.00;;;;;;4996671;28;20035;-80
2022/09/16 11:22:21;;;;;;;1.00;0.77;;;21.50;55.50;;;;;;4979514;28;20894;-78
2022/09/16 11:24:52;;;;;;;1.63;1.08;;;21.60;55.00;;;;;;4991334;28;20130;-78
2022/09/16 11:27:45;;;;;;;1.85;1.00;;;21.70;55.30;;;;;;4994008;28;20046;-78
2022/09/16 11:30:14;;;;;;;2.10;1.08;;;21.80;54.60;;;;;;4995845;28;20498;-79
2022/09/16 11:33:04;;;;;;;1.60;0.90;;;21.90;54.90;;;;;;4992047;28;20066;-78
2022/09/16 11:36:02;;;;;;;3.05;1.00;;;21.90;53.80;;;;;;4996261;28;20073;-78
2022/09/16 11:38:49;;;;;;;4.20;0.80;;;22.10;54.00;;;;;;4996919;28;20062;-78
2022/09/16 11:41:20;;;;;;;1.40;0.90;;;22.30;54.40;;;;;;4987323;28;20126;-79
2022/09/16 11:44:15;;;;;;;2.72;0.80;;;22.50;54.20;;;;;;4987880;28;20129;-79
2022/09/16 11:47:06;;;;;;;2.33;0.80;;;22.80;52.60;;;;;;4995234;28;20038;-78
2022/09/16 11:49:58;;;;;;;2.78;0.70;;;22.80;52.40;;;;;;4989922;28;20061;-80
2022/09/16 11:52:42;;;;;;;2.15;0.70;;;22.80;52.60;;;;;;4991226;28;20129;-78
2022/09/16 11:55:33;;;;;;;0.98;0.60;;;22.70;52.90;;;;;;4988741;28;20042;-76
2022/09/16 11:58:07;;;;;;;0.77;0.50;;;22.60;53.40;;;;;;4991237;28;20062;-79
2022/09/16 12:00:33;;;;;;;1.75;0.45;;;22.40;53.60;;;;;;4961404;28;20042;-78
2022/09/16 12:03:28;;;;;;;0.93;0.45;;;22.20;54.00;;;;;;4995326;28;20122;-79
2022/09/16 12:06:02;;;;;;;2.20;0.43;;;22.00;54.10;;;;;;4996502;28;20026;-79
2022/09/16 12:08:32;;;;;;;0.68;0.40;;;21.90;54.60;;;;;;4977043;28;20035;-79
2022/09/16 12:11:03;;;;;;;2.88;0.38;;;21.90;55.00;;;;;;4990505;28;20054;-78
2022/09/16 12:13:34;;;;;;;1.25;0.30;;;21.90;55.00;;;;;;4994422;28;20038;-79
2022/09/16 12:16:04;;;;;;;1.67;0.50;;;21.90;54.60;;;;;;5006139;28;20030;-78
2022/09/16 12:18:33;;;;;;;3.42;0.80;;;21.90;54.40;;;;;;5001818;28;20038;-78
2022/09/16 12:21:09;;;;;;;1.38;0.50;;;21.70;54.40;;;;;;4983250;28;20430;-78
2022/09/16 12:23:50;;;;;;;0.35;0.30;;;21.70;54.40;;;;;;4992985;28;20038;-77
2022/09/16 12:26:30;;;;;;;1.27;0.35;;;21.70;54.20;;;;;;4998904;28;20039;-78
2022/09/16 12:29:25;;;;;;;3.08;0.60;;;21.90;54.70;;;;;;4973027;28;20046;-76
2022/09/16 12:32:04;;;;;;;1.05;0.38;;;22.20;54.20;;;;;;4996380;28;20056;-75
2022/09/16 12:34:38;;;;;;;0.30;0.30;;;22.20;54.20;;;;;;4996203;28;20041;-77
2022/09/16 12:37:35;;;;;;;1.00;0.55;;;22.30;54.10;;;;;;4997463;28;20035;-77
2022/09/16 12:40:00;;;;;;;1.77;0.50;;;22.30;53.50;;;;;;4979190;28;20117;-77
2022/09/16 12:43:03;;;;;;;3.15;0.60;;;22.30;54.00;;;;;;4964008;28;20077;-77
2022/09/16 12:46:27;;;;;;;2.10;0.50;;;22.30;52.90;;;;;;4976579;28;20030;-77
2022/09/16 12:49:13;;;;;;;2.75;0.50;;;22.20;53.00;;;;;;4960584;28;20082;-77
2022/09/16 12:51:54;;;;;;;1.25;0.40;;;22.10;53.70;;;;;;4976225;28;20039;-78
2022/09/16 12:54:54;;;;;;;1.58;0.60;;;22.00;53.30;;;;;;4972768;28;20037;-77
2022/09/16 12:57:28;;;;;;;3.03;0.60;;;22.00;52.90;;;;;;4953536;28;20299;-78
2022/09/16 13:00:13;;;;;;;0.90;0.50;;;21.90;53.80;;;;;;4954881;28;20105;-77
2022/09/16 13:02:51;;;;;;;1.85;0.40;;;21.90;53.70;;;;;;4962937;28;20117;-77
2022/09/16 13:05:23;;;;;;;1.90;0.55;;;21.90;53.40;;;;;;4894633;28;20035;-78
2022/09/16 13:07:51;;;;;;;1.55;0.45;;;22.00;53.80;;;;;;4936170;28;20101;-78
2022/09/16 13:10:18;;;;;;;0.70;0.30;;;22.20;53.70;;;;;;4957391;28;20042;-77
2022/09/16 13:12:53;;;;;;;1.48;0.45;;;22.30;53.50;;;;;;4964802;28;20090;-76